Time;durP1;ratioP1;P1;durP2;ratioP2;P2;SDS_P1;SDS_P2;PMS_P1;PMS_P2;Temp;Humidity;BMP_temperature;BMP_pressure;BME280_temperature;BME280_humidity;BME280_pressure;Samples;Min_cycle;Max_cycle;Signal;HPM_P1;HPM_P2
2023/07/12 00:01:23;;;;;;;10.00;4.40;;;13.00;68.60;;;;;;5004613;28;20193;-67
2023/07/12 00:03:51;;;;;;;8.40;4.53;;;13.10;68.60;;;;;;5006103;28;20216;-65
2023/07/12 00:06:49;;;;;;;10.40;4.27;;;13.00;68.10;;;;;;5003983;28;20260;-66
2023/07/12 00:09:16;;;;;;;9.50;4.43;;;13.10;67.80;;;;;;5003036;28;20204;-69
2023/07/12 00:11:43;;;;;;;6.27;4.20;;;13.20;67.80;;;;;;5005953;28;20519;-67
2023/07/12 00:14:11;;;;;;;10.90;4.20;;;13.30;68.10;;;;;;5003044;28;20905;-69
2023/07/12 00:16:40;;;;;;;6.60;3.70;;;13.50;67.20;;;;;;5005640;28;20192;-69
2023/07/12 00:19:14;;;;;;;6.97;4.20;;;13.60;66.90;;;;;;5006362;28;20265;-66
2023/07/12 00:21:42;;;;;;;9.80;3.83;;;13.50;66.40;;;;;;4989838;28;20674;-66
2023/07/12 00:24:10;;;;;;;9.10;4.67;;;13.70;66.30;;;;;;5000051;28;20193;-67
2023/07/12 00:26:38;;;;;;;7.53;4.40;;;13.80;65.70;;;;;;5009939;28;20195;-65
2023/07/12 00:29:07;;;;;;;5.10;3.63;;;13.80;65.80;;;;;;5003745;28;20182;-66
2023/07/12 00:31:36;;;;;;;7.40;4.17;;;13.90;65.00;;;;;;5008152;28;20178;-66
2023/07/12 00:34:04;;;;;;;8.90;4.73;;;14.00;65.20;;;;;;5001780;28;20193;-66
2023/07/12 00:36:33;;;;;;;12.20;4.70;;;14.00;64.80;;;;;;5006981;28;20698;-68
2023/07/12 00:39:02;;;;;;;8.70;4.47;;;14.00;64.70;;;;;;4998662;28;20667;-69
2023/07/12 00:41:51;;;;;;;9.83;4.70;;;14.10;64.40;;;;;;4997576;28;20197;-63
2023/07/12 00:44:24;;;;;;;7.07;4.30;;;14.40;64.40;;;;;;5002662;28;20216;-66
2023/07/12 00:46:54;;;;;;;8.23;4.23;;;14.50;64.00;;;;;;5008462;28;20186;-65
2023/07/12 00:49:22;;;;;;;8.73;3.93;;;14.50;63.00;;;;;;5003495;28;20182;-65
2023/07/12 00:52:10;;;;;;;9.13;4.20;;;14.60;62.50;;;;;;5006420;28;20178;-64
2023/07/12 00:54:54;;;;;;;9.03;4.07;;;14.80;62.90;;;;;;5003533;28;20218;-65
2023/07/12 00:57:27;;;;;;;9.03;4.20;;;14.90;62.20;;;;;;5008685;28;20185;-66
2023/07/12 00:59:59;;;;;;;11.67;3.80;;;15.10;61.30;;;;;;5007039;28;20675;-66
2023/07/12 01:02:27;;;;;;;8.23;3.90;;;15.20;60.90;;;;;;5007248;28;20181;-65
2023/07/12 01:05:00;;;;;;;10.77;4.50;;;15.20;60.30;;;;;;5005110;28;20276;-64
2023/07/12 01:07:30;;;;;;;7.13;4.20;;;15.20;60.80;;;;;;5001353;28;20268;-64
2023/07/12 01:09:57;;;;;;;8.60;4.07;;;15.30;60.60;;;;;;5001042;28;20182;-69
2023/07/12 01:12:25;;;;;;;9.07;4.20;;;15.50;59.60;;;;;;5007608;28;20273;-66
2023/07/12 01:14:52;;;;;;;10.90;3.77;;;15.70;58.70;;;;;;5009259;28;20307;-69
2023/07/12 01:17:23;;;;;;;5.97;3.50;;;15.80;58.90;;;;;;5007480;28;20186;-69
2023/07/12 01:19:50;;;;;;;9.83;3.60;;;15.80;58.50;;;;;;5004229;28;20192;-65
2023/07/12 01:22:17;;;;;;;14.33;3.40;;;16.00;57.50;;;;;;5009691;28;20227;-65
2023/07/12 01:24:45;;;;;;;9.13;3.63;;;16.20;57.10;;;;;;4995469;28;20192;-65
2023/07/12 01:27:20;;;;;;;6.10;3.40;;;16.30;56.80;;;;;;5011618;28;20208;-64
2023/07/12 01:29:49;;;;;;;5.90;3.53;;;16.30;56.60;;;;;;5009627;28;20571;-68
2023/07/12 01:32:17;;;;;;;7.80;3.37;;;16.30;56.30;;;;;;5009209;28;20857;-66
2023/07/12 01:34:44;;;;;;;9.37;3.30;;;16.50;55.70;;;;;;5005739;28;20235;-64
2023/07/12 01:37:13;;;;;;;7.53;3.53;;;16.80;55.60;;;;;;5006946;28;20651;-66
2023/07/12 01:39:40;;;;;;;4.60;2.83;;;16.80;54.90;;;;;;5006591;28;20200;-65
2023/07/12 01:42:08;;;;;;;8.47;3.20;;;16.80;54.40;;;;;;5008255;28;20201;-64
2023/07/12 01:44:35;;;;;;;5.97;2.83;;;16.80;54.90;;;;;;5007087;28;20549;-64
2023/07/12 01:47:02;;;;;;;7.07;3.13;;;17.10;54.20;;;;;;5009548;28;20189;-68
2023/07/12 01:49:30;;;;;;;10.20;3.10;;;17.20;53.30;;;;;;5005480;28;20185;-67
2023/07/12 01:51:57;;;;;;;8.20;2.80;;;17.40;53.20;;;;;;4997534;28;20188;-65
2023/07/12 01:55:09;;;;;;;6.97;2.77;;;17.40;52.00;;;;;;5008447;28;20227;-65
2023/07/12 01:57:36;;;;;;;8.33;2.90;;;17.70;52.40;;;;;;4946149;29;20195;-65
2023/07/12 02:00:04;;;;;;;7.40;2.13;;;17.80;52.10;;;;;;4986838;28;20202;-66
2023/07/12 02:02:31;;;;;;;6.20;2.27;;;17.70;50.60;;;;;;4993660;28;20184;-67
2023/07/12 02:04:59;;;;;;;5.10;1.90;;;18.00;50.40;;;;;;5004588;28;20208;-65
2023/07/12 02:07:26;;;;;;;9.07;3.00;;;18.10;50.00;;;;;;5010278;28;20254;-68
2023/07/12 02:16:17;;;;;;;5.30;1.50;;;18.40;49.00;;;;;;5003536;28;20308;-68
2023/07/12 02:19:03;;;;;;;7.50;2.27;;;18.60;48.80;;;;;;5004477;28;20550;-66
2023/07/12 02:21:30;;;;;;;7.37;1.80;;;18.70;49.00;;;;;;5008482;28;20213;-66
2023/07/12 02:23:58;;;;;;;3.67;1.40;;;18.80;49.20;;;;;;5004303;28;20248;-70
2023/07/12 02:26:25;;;;;;;3.07;1.77;;;18.80;48.90;;;;;;5006047;28;20665;-69
2023/07/12 02:28:52;;;;;;;9.47;5.07;;;19.00;48.50;;;;;;5004351;28;20188;-68
2023/07/12 02:31:24;;;;;;;4.27;2.50;;;19.10;49.10;;;;;;5009301;28;20547;-69
2023/07/12 02:33:52;;;;;;;5.07;1.77;;;19.10;49.10;;;;;;5008979;28;20221;-65
2023/07/12 02:36:20;;;;;;;4.17;1.53;;;19.10;48.70;;;;;;4998451;28;20234;-68
2023/07/12 02:38:47;;;;;;;4.90;1.40;;;19.30;48.90;;;;;;5005903;28;20524;-66
2023/07/12 02:41:18;;;;;;;4.00;1.43;;;19.30;48.20;;;;;;5000100;28;20200;-67
2023/07/12 02:43:49;;;;;;;3.97;1.47;;;19.10;48.30;;;;;;5003334;28;20220;-67
2023/07/12 02:46:16;;;;;;;2.50;1.37;;;19.10;49.00;;;;;;5006375;28;20210;-68
2023/07/12 02:48:44;;;;;;;4.83;1.30;;;19.40;48.30;;;;;;5005906;28;20268;-66
2023/07/12 02:51:12;;;;;;;2.73;1.20;;;19.50;47.70;;;;;;5009506;28;20312;-68
2023/07/12 02:53:39;;;;;;;4.90;1.80;;;19.50;47.80;;;;;;5007260;28;20185;-66
2023/07/12 02:56:06;;;;;;;5.07;1.43;;;19.60;48.10;;;;;;4999305;28;20221;-71
2023/07/12 02:58:34;;;;;;;1.83;1.30;;;19.70;47.40;;;;;;5003513;28;20189;-70
2023/07/12 03:01:01;;;;;;;1.40;1.30;;;19.80;47.40;;;;;;5004755;28;20264;-66
2023/07/12 03:03:29;;;;;;;6.47;1.40;;;19.90;47.00;;;;;;5008778;28;20185;-66
2023/07/12 03:06:02;;;;;;;4.43;1.30;;;19.90;46.80;;;;;;5007224;28;20260;-69
2023/07/12 03:08:29;;;;;;;3.13;1.20;;;20.10;47.00;;;;;;5004379;28;20280;-70
2023/07/12 03:10:59;;;;;;;8.37;1.40;;;19.80;47.40;;;;;;5006272;28;20590;-68
2023/07/12 03:13:26;;;;;;;3.23;1.27;;;19.90;47.50;;;;;;5008613;28;20264;-67
2023/07/12 03:15:53;;;;;;;3.17;1.43;;;20.00;47.10;;;;;;4998630;28;20225;-69
2023/07/12 03:18:21;;;;;;;6.83;1.50;;;20.20;46.60;;;;;;5006155;28;20553;-68
2023/07/12 03:20:48;;;;;;;3.20;1.33;;;20.40;46.80;;;;;;5006669;28;20188;-66
2023/07/12 03:23:16;;;;;;;1.90;1.10;;;20.50;45.50;;;;;;5010403;28;20178;-67
2023/07/12 03:25:47;;;;;;;2.90;1.43;;;20.60;45.60;;;;;;5006830;28;20193;-69
2023/07/12 03:28:14;;;;;;;3.77;1.13;;;20.60;45.60;;;;;;5003232;28;20198;-66
2023/07/12 03:30:42;;;;;;;3.40;1.30;;;20.80;45.80;;;;;;5010042;28;20263;-67
2023/07/12 03:33:09;;;;;;;3.40;1.20;;;20.90;45.80;;;;;;5001840;28;20248;-67
2023/07/12 03:35:36;;;;;;;5.03;1.23;;;21.30;45.10;;;;;;5009648;28;20260;-66
2023/07/12 03:38:04;;;;;;;3.03;1.00;;;21.50;44.00;;;;;;4998987;28;20205;-70
2023/07/12 03:40:31;;;;;;;3.90;1.20;;;21.20;44.30;;;;;;5008258;28;20555;-69
2023/07/12 03:42:58;;;;;;;2.70;1.20;;;21.20;44.40;;;;;;4999369;28;20193;-65
2023/07/12 03:45:26;;;;;;;4.20;1.13;;;21.80;43.40;;;;;;5005529;28;20193;-65
2023/07/12 03:47:53;;;;;;;4.43;1.03;;;22.30;43.00;;;;;;5006358;28;20177;-67
2023/07/12 03:50:20;;;;;;;2.53;1.13;;;22.00;42.90;;;;;;5009114;28;20553;-67
2023/07/12 03:52:48;;;;;;;1.97;0.90;;;22.00;42.80;;;;;;5003606;28;20189;-66
2023/07/12 03:55:15;;;;;;;7.37;1.00;;;22.50;42.10;;;;;;4990531;28;20572;-68
2023/07/12 03:57:42;;;;;;;1.80;1.07;;;22.80;41.20;;;;;;5007524;28;20185;-67
2023/07/12 04:00:12;;;;;;;3.27;1.13;;;22.30;42.10;;;;;;5008333;28;20193;-67
2023/07/12 04:02:41;;;;;;;1.57;0.80;;;22.20;42.10;;;;;;5006489;28;20293;-65
2023/07/12 04:05:08;;;;;;;3.70;1.07;;;22.60;42.20;;;;;;5000373;28;20544;-66
2023/07/12 04:07:36;;;;;;;3.33;1.20;;;23.00;40.50;;;;;;4986629;28;20185;-67
2023/07/12 04:10:03;;;;;;;3.20;1.07;;;22.80;40.80;;;;;;5008315;28;20189;-68
2023/07/12 04:12:31;;;;;;;4.00;1.20;;;22.60;41.90;;;;;;5005674;28;20267;-67
2023/07/12 04:14:58;;;;;;;3.13;1.10;;;22.70;41.00;;;;;;5003474;28;20224;-68
2023/07/12 04:17:26;;;;;;;4.37;1.30;;;22.30;42.50;;;;;;5001023;28;20284;-66
2023/07/12 04:19:53;;;;;;;5.70;1.43;;;22.00;43.40;;;;;;5002912;28;20197;-68
2023/07/12 04:22:20;;;;;;;2.93;1.30;;;22.30;43.10;;;;;;5005826;28;20750;-67
2023/07/12 04:24:52;;;;;;;4.23;1.50;;;22.10;44.10;;;;;;5001805;28;20204;-68
2023/07/12 04:27:20;;;;;;;4.00;1.30;;;22.30;44.40;;;;;;5001826;28;20279;-69
2023/07/12 04:29:49;;;;;;;6.30;1.70;;;22.40;44.90;;;;;;5004676;28;20227;-69
2023/07/12 04:32:16;;;;;;;4.23;1.60;;;22.30;44.90;;;;;;5005822;28;20239;-67
2023/07/12 04:34:43;;;;;;;9.03;1.80;;;22.00;45.50;;;;;;5002444;28;20212;-68
2023/07/12 04:37:11;;;;;;;4.97;1.40;;;22.00;45.50;;;;;;5005701;28;20627;-68
2023/07/12 04:39:38;;;;;;;5.40;1.80;;;22.60;45.30;;;;;;5001965;28;20178;-67
2023/07/12 04:42:06;;;;;;;5.77;2.23;;;22.30;46.10;;;;;;5002569;28;20263;-66
2023/07/12 04:44:34;;;;;;;8.33;1.90;;;22.10;47.10;;;;;;5006740;28;20193;-68
2023/07/12 04:47:01;;;;;;;7.63;1.80;;;22.10;47.70;;;;;;4999855;28;20196;-67
2023/07/12 04:49:28;;;;;;;11.80;2.17;;;21.90;48.50;;;;;;5001049;28;20252;-65
2023/07/12 04:51:57;;;;;;;5.53;2.13;;;21.90;48.50;;;;;;5006186;28;20186;-67
2023/07/12 04:54:24;;;;;;;5.87;1.90;;;21.60;49.50;;;;;;5011164;28;20201;-66
2023/07/12 04:56:51;;;;;;;5.17;1.57;;;21.90;49.60;;;;;;5006267;28;20283;-65
2023/07/12 04:59:19;;;;;;;12.70;1.80;;;22.10;48.60;;;;;;5004616;28;20276;-67
2023/07/12 05:01:47;;;;;;;7.70;1.70;;;22.10;49.30;;;;;;5003988;28;20197;-69
2023/07/12 05:04:15;;;;;;;4.53;1.97;;;22.40;48.90;;;;;;5003979;28;20608;-70
2023/07/12 05:06:42;;;;;;;6.30;1.43;;;22.90;47.50;;;;;;5005232;28;20190;-69
2023/07/12 05:09:10;;;;;;;5.17;1.80;;;23.10;47.90;;;;;;5009092;28;20307;-68
2023/07/12 05:11:37;;;;;;;7.93;2.00;;;22.80;47.90;;;;;;5006151;28;20185;-68
2023/07/12 05:14:05;;;;;;;5.87;1.83;;;23.30;46.70;;;;;;5010402;28;20190;-68
2023/07/12 05:16:32;;;;;;;6.17;1.60;;;23.30;45.90;;;;;;5007621;28;20201;-69
2023/07/12 05:19:00;;;;;;;6.23;1.67;;;23.00;47.10;;;;;;5012022;28;20204;-69
2023/07/12 05:21:27;;;;;;;8.93;2.10;;;23.20;46.90;;;;;;5009670;28;20189;-65
2023/07/12 05:23:54;;;;;;;8.80;2.50;;;23.10;46.80;;;;;;4992691;28;20206;-66
2023/07/12 05:26:22;;;;;;;8.57;2.20;;;22.80;48.30;;;;;;5009019;28;20240;-70
2023/07/12 05:28:49;;;;;;;4.80;1.63;;;23.50;46.50;;;;;;5009221;28;20598;-69
2023/07/12 05:31:16;;;;;;;2.20;1.20;;;23.70;45.30;;;;;;5004854;28;20213;-69
2023/07/12 05:33:45;;;;;;;4.73;1.33;;;23.60;45.20;;;;;;5008672;28;20276;-67
2023/07/12 05:36:17;;;;;;;5.00;1.50;;;23.30;45.30;;;;;;5002318;28;20245;-67
2023/07/12 05:38:45;;;;;;;4.40;1.30;;;23.20;45.60;;;;;;5010803;28;20182;-67
2023/07/12 05:41:13;;;;;;;2.37;1.03;;;23.00;45.80;;;;;;5008472;28;20212;-65
2023/07/12 05:43:41;;;;;;;2.73;1.20;;;22.90;45.20;;;;;;5011984;28;20632;-67
2023/07/12 05:46:08;;;;;;;6.23;1.10;;;22.60;47.80;;;;;;5009235;28;20193;-67
2023/07/12 05:48:37;;;;;;;3.37;1.20;;;22.70;46.40;;;;;;5004463;28;20193;-65
2023/07/12 05:51:07;;;;;;;2.37;1.17;;;22.80;45.90;;;;;;5006413;28;20188;-64
2023/07/12 05:53:35;;;;;;;1.93;1.03;;;22.80;45.60;;;;;;5007077;28;20190;-66
2023/07/12 05:56:04;;;;;;;4.63;1.30;;;22.80;46.00;;;;;;5005061;28;20224;-67
2023/07/12 05:58:31;;;;;;;2.93;1.10;;;22.60;46.10;;;;;;5008814;28;20287;-64
2023/07/12 06:01:00;;;;;;;4.93;0.90;;;22.30;47.30;;;;;;5005713;28;20185;-65
2023/07/12 06:03:30;;;;;;;4.63;0.97;;;22.30;47.50;;;;;;5005712;28;20193;-65
2023/07/12 06:05:58;;;;;;;3.87;1.17;;;21.90;48.50;;;;;;5002947;28;20189;-66
2023/07/12 06:08:26;;;;;;;4.97;1.20;;;22.20;48.90;;;;;;5010000;28;20725;-63
2023/07/12 06:10:54;;;;;;;5.10;1.90;;;22.10;47.90;;;;;;5007266;28;20189;-68
2023/07/12 06:13:22;;;;;;;5.17;1.50;;;21.10;50.50;;;;;;5002954;28;20678;-66
2023/07/12 06:15:49;;;;;;;5.73;1.23;;;20.40;53.10;;;;;;5007049;28;20228;-65
2023/07/12 06:18:17;;;;;;;5.83;1.50;;;20.00;53.70;;;;;;5006739;28;20252;-66
2023/07/12 06:20:45;;;;;;;3.77;1.50;;;19.70;54.50;;;;;;5009552;28;20655;-64
2023/07/12 06:23:13;;;;;;;6.00;1.53;;;19.50;55.40;;;;;;5008993;28;20601;-65
2023/07/12 06:25:40;;;;;;;6.97;1.33;;;19.30;55.70;;;;;;5008962;28;20201;-66
2023/07/12 06:28:08;;;;;;;4.90;1.30;;;19.20;56.20;;;;;;4979161;28;20695;-64
2023/07/12 06:30:37;;;;;;;4.80;1.43;;;18.90;57.00;;;;;;5006567;28;20189;-64
2023/07/12 06:33:04;;;;;;;4.60;1.27;;;18.80;58.20;;;;;;5009846;28;20231;-68
2023/07/12 06:35:31;;;;;;;4.47;1.67;;;18.50;58.80;;;;;;5006453;28;20230;-67
2023/07/12 06:37:59;;;;;;;4.23;1.70;;;18.30;59.80;;;;;;5002817;28;20550;-67
2023/07/12 06:40:26;;;;;;;4.07;1.50;;;18.10;60.80;;;;;;5007388;28;20186;-65
2023/07/12 06:42:54;;;;;;;3.27;1.20;;;17.90;61.60;;;;;;5008968;28;20577;-66
2023/07/12 06:45:21;;;;;;;5.77;1.60;;;17.80;62.40;;;;;;5002468;28;20193;-67
2023/07/12 06:47:48;;;;;;;5.13;1.23;;;17.60;63.20;;;;;;5000522;28;20190;-65
2023/07/12 06:50:16;;;;;;;9.20;1.60;;;17.50;64.00;;;;;;5009357;28;20553;-64
2023/07/12 06:52:43;;;;;;;5.37;1.60;;;17.30;65.00;;;;;;5000418;28;20194;-64
2023/07/12 06:55:11;;;;;;;8.83;1.63;;;17.20;65.90;;;;;;5009078;28;20798;-64
2023/07/12 06:57:38;;;;;;;4.37;1.70;;;17.10;66.80;;;;;;5008927;28;20239;-64
2023/07/12 07:00:09;;;;;;;8.17;1.63;;;17.00;67.30;;;;;;5008258;28;20228;-65
2023/07/12 07:02:36;;;;;;;11.27;2.23;;;16.90;68.00;;;;;;5005884;28;20606;-64
2023/07/12 07:05:04;;;;;;;8.10;1.77;;;16.80;68.60;;;;;;5003181;28;20262;-63
2023/07/12 07:07:31;;;;;;;6.57;1.73;;;16.70;69.20;;;;;;5000491;28;20188;-65
2023/07/12 07:09:59;;;;;;;6.90;1.50;;;16.70;69.80;;;;;;5007456;28;20683;-66
2023/07/12 07:12:26;;;;;;;8.70;2.30;;;16.50;70.60;;;;;;5002449;28;20650;-66
2023/07/12 07:14:53;;;;;;;8.83;1.70;;;16.50;71.30;;;;;;5006987;28;20219;-65
2023/07/12 07:17:21;;;;;;;3.50;1.83;;;16.40;71.70;;;;;;5010261;28;20180;-66
2023/07/12 07:19:48;;;;;;;10.70;2.00;;;16.30;72.00;;;;;;4995493;28;20241;-66
2023/07/12 07:22:15;;;;;;;3.53;1.47;;;16.30;72.40;;;;;;5006180;28;20217;-65
2023/07/12 07:24:43;;;;;;;6.40;2.30;;;16.30;72.80;;;;;;5009203;28;20261;-65
2023/07/12 07:27:12;;;;;;;5.73;2.90;;;16.20;73.20;;;;;;5004511;28;20189;-68
2023/07/12 07:29:40;;;;;;;9.33;2.90;;;16.20;73.60;;;;;;5006908;28;20198;-67
2023/07/12 07:32:07;;;;;;;4.33;2.33;;;16.10;73.90;;;;;;5004518;28;20200;-65
2023/07/12 07:34:35;;;;;;;6.83;2.20;;;16.10;74.20;;;;;;5001650;28;20215;-66
2023/07/12 07:37:02;;;;;;;9.37;2.30;;;16.00;74.40;;;;;;5004677;28;20579;-65
2023/07/12 07:39:31;;;;;;;5.50;2.20;;;16.00;74.60;;;;;;5008310;28;20208;-68
2023/07/12 07:42:02;;;;;;;7.53;3.93;;;16.00;74.70;;;;;;5002378;28;20292;-66
2023/07/12 07:44:29;;;;;;;14.23;5.90;;;15.90;74.70;;;;;;4992826;28;20193;-70
2023/07/12 07:46:57;;;;;;;10.73;3.40;;;15.80;75.00;;;;;;5005151;28;20224;-64
2023/07/12 07:49:25;;;;;;;10.47;3.13;;;15.80;75.10;;;;;;5004590;28;20194;-65
2023/07/12 07:51:54;;;;;;;7.77;3.53;;;15.80;75.30;;;;;;5005285;28;20200;-66
2023/07/12 07:54:21;;;;;;;13.50;3.53;;;15.80;75.40;;;;;;5009050;28;20193;-64
2023/07/12 07:56:52;;;;;;;19.80;3.00;;;15.70;75.60;;;;;;5004402;28;20223;-67
2023/07/12 07:59:19;;;;;;;13.87;3.00;;;15.70;75.90;;;;;;5007919;28;20187;-65
2023/07/12 08:01:46;;;;;;;8.97;2.27;;;15.70;76.10;;;;;;5006740;28;20557;-67
2023/07/12 08:04:14;;;;;;;9.20;2.70;;;15.60;76.30;;;;;;5003741;28;20200;-65
2023/07/12 08:06:41;;;;;;;6.80;2.97;;;15.60;76.60;;;;;;5003847;28;20190;-68
2023/07/12 08:09:09;;;;;;;9.87;4.53;;;15.50;76.80;;;;;;5006531;28;20200;-66
2023/07/12 08:11:37;;;;;;;9.50;3.30;;;15.50;77.00;;;;;;5002714;28;20182;-65
2023/07/12 08:14:04;;;;;;;12.97;2.90;;;15.40;77.20;;;;;;5003529;28;20238;-67
2023/07/12 08:16:35;;;;;;;9.27;2.20;;;15.40;77.50;;;;;;5005217;28;20224;-66
2023/07/12 08:19:06;;;;;;;10.77;2.60;;;15.40;77.70;;;;;;5002844;28;20199;-69
2023/07/12 08:21:34;;;;;;;6.83;2.43;;;15.40;78.10;;;;;;5000161;28;20553;-68
2023/07/12 08:24:01;;;;;;;9.47;2.90;;;15.40;78.20;;;;;;5002622;28;20178;-66
2023/07/12 08:26:28;;;;;;;13.10;3.57;;;15.40;78.40;;;;;;5006876;28;20550;-66
2023/07/12 08:28:56;;;;;;;8.40;3.10;;;15.30;78.60;;;;;;5005363;28;20189;-67
2023/07/12 08:31:23;;;;;;;11.67;3.50;;;15.30;78.90;;;;;;5000248;28;20261;-66
2023/07/12 08:33:51;;;;;;;11.07;3.37;;;15.30;78.90;;;;;;5005296;28;20188;-70
2023/07/12 08:36:21;;;;;;;9.80;3.53;;;15.30;78.80;;;;;;5005781;28;20695;-66
2023/07/12 08:38:49;;;;;;;11.03;4.60;;;15.30;79.00;;;;;;5005496;28;20236;-65
2023/07/12 08:41:20;;;;;;;10.73;4.87;;;15.20;79.20;;;;;;5007297;28;20193;-66
2023/07/12 08:43:48;;;;;;;13.03;3.23;;;15.20;79.30;;;;;;5001297;28;20261;-65
2023/07/12 08:46:38;;;;;;;7.27;3.77;;;15.10;79.40;;;;;;5006473;28;20239;-64
2023/07/12 08:49:09;;;;;;;8.97;3.93;;;15.10;79.70;;;;;;5001145;28;20186;-66
2023/07/12 08:51:36;;;;;;;13.27;3.87;;;15.10;80.00;;;;;;4999315;28;20236;-67
2023/07/12 08:54:04;;;;;;;13.60;3.00;;;15.10;80.10;;;;;;5005022;28;20186;-66
2023/07/12 08:56:32;;;;;;;6.73;3.00;;;15.00;80.00;;;;;;5002241;28;20682;-66
2023/07/12 08:59:01;;;;;;;8.93;2.50;;;15.00;80.20;;;;;;5001629;28;20186;-66
2023/07/12 09:01:45;;;;;;;5.30;2.50;;;15.00;80.10;;;;;;4992476;28;20189;-67
2023/07/12 09:04:23;;;;;;;12.97;3.00;;;15.00;80.10;;;;;;5003734;28;20202;-65
2023/07/12 09:07:04;;;;;;;15.70;3.03;;;15.00;79.90;;;;;;5005531;28;20184;-64
2023/07/12 09:09:38;;;;;;;6.60;2.50;;;15.00;79.80;;;;;;5005821;28;20196;-65
2023/07/12 09:12:07;;;;;;;8.73;2.10;;;14.90;80.00;;;;;;5003640;28;20656;-65
2023/07/12 09:14:38;;;;;;;8.23;3.13;;;14.90;79.80;;;;;;5000857;28;20193;-69
2023/07/12 09:17:21;;;;;;;7.83;2.70;;;14.80;79.90;;;;;;5005139;28;20179;-64
2023/07/12 09:19:50;;;;;;;8.83;2.57;;;14.90;79.90;;;;;;5003723;28;20181;-67
2023/07/12 09:22:19;;;;;;;7.00;2.93;;;14.80;79.80;;;;;;5006027;28;20694;-65
2023/07/12 09:24:55;;;;;;;5.87;2.43;;;14.80;79.80;;;;;;5005025;28;20833;-65
2023/07/12 09:27:28;;;;;;;14.00;3.13;;;14.80;79.80;;;;;;5003906;28;20514;-64
2023/07/12 09:30:03;;;;;;;4.63;2.40;;;14.80;79.60;;;;;;5008496;28;20185;-69
2023/07/12 09:32:36;;;;;;;8.23;2.97;;;14.80;79.90;;;;;;5004206;28;20324;-66
2023/07/12 09:35:24;;;;;;;11.60;4.60;;;14.80;79.80;;;;;;5005355;28;20250;-65
2023/07/12 09:38:04;;;;;;;7.90;3.40;;;14.80;79.80;;;;;;5005237;28;20181;-68
2023/07/12 09:40:42;;;;;;;8.13;3.50;;;14.70;79.70;;;;;;5004620;28;20248;-65
2023/07/12 09:43:17;;;;;;;11.90;3.63;;;14.70;79.80;;;;;;5008569;28;20537;-67
2023/07/12 09:46:08;;;;;;;5.63;3.00;;;14.60;79.80;;;;;;5007084;28;20177;-67
2023/07/12 09:48:35;;;;;;;8.23;3.10;;;14.50;80.00;;;;;;5007557;28;20189;-65
2023/07/12 09:51:08;;;;;;;8.27;3.50;;;14.50;80.10;;;;;;5000187;28;20690;-69
2023/07/12 09:53:47;;;;;;;6.77;2.67;;;14.50;80.10;;;;;;5007819;28;20561;-64
2023/07/12 09:56:24;;;;;;;12.10;3.33;;;14.50;80.00;;;;;;5006344;28;20228;-69
2023/07/12 09:59:30;;;;;;;9.10;2.63;;;14.40;80.10;;;;;;5008547;28;20185;-67
2023/07/12 10:02:20;;;;;;;12.23;2.87;;;14.40;79.90;;;;;;5005641;28;20214;-64
2023/07/12 10:04:59;;;;;;;9.03;3.03;;;14.30;79.90;;;;;;5003227;28;20177;-67
2023/07/12 10:08:01;;;;;;;12.53;3.10;;;14.30;80.00;;;;;;5007340;28;20181;-68
2023/07/12 10:10:38;;;;;;;7.63;3.10;;;14.30;80.20;;;;;;5010946;28;20197;-65
2023/07/12 10:13:12;;;;;;;5.60;2.90;;;14.30;80.30;;;;;;5004806;28;20671;-65
2023/07/12 10:15:41;;;;;;;9.97;3.03;;;14.30;80.20;;;;;;5010887;28;20213;-68
2023/07/12 10:18:21;;;;;;;8.50;3.17;;;14.30;80.30;;;;;;5006807;28;20224;-67
2023/07/12 10:20:50;;;;;;;6.97;3.27;;;14.30;80.20;;;;;;5007619;28;20266;-66
2023/07/12 10:23:22;;;;;;;5.70;2.70;;;14.30;80.30;;;;;;5005646;28;20768;-67
2023/07/12 10:26:01;;;;;;;10.17;3.43;;;14.20;80.20;;;;;;4988724;28;21748;-70
2023/07/12 10:28:46;;;;;;;10.83;3.00;;;14.20;80.30;;;;;;5005676;28;20184;-67
2023/07/12 10:31:47;;;;;;;11.17;3.27;;;14.20;80.40;;;;;;5001191;28;20196;-65
2023/07/12 10:34:32;;;;;;;10.63;3.50;;;14.20;80.40;;;;;;5006955;28;20185;-66
2023/07/12 10:37:25;;;;;;;10.07;3.90;;;14.20;80.70;;;;;;5004582;28;20589;-67
2023/07/12 10:39:53;;;;;;;8.90;3.57;;;14.20;80.80;;;;;;4991124;28;20192;-69
2023/07/12 10:42:32;;;;;;;8.60;3.47;;;14.10;80.70;;;;;;5005900;28;20195;-70
2023/07/12 10:45:02;;;;;;;7.53;3.40;;;14.10;81.00;;;;;;5006543;28;20181;-66
2023/07/12 10:47:37;;;;;;;6.73;2.80;;;14.00;80.80;;;;;;4988970;28;20189;-70
2023/07/12 10:50:19;;;;;;;10.00;3.33;;;14.00;80.90;;;;;;5005181;28;20185;-66
2023/07/12 10:53:05;;;;;;;9.90;3.73;;;14.00;81.30;;;;;;5002271;28;20177;-72
2023/07/12 10:56:25;;;;;;;6.50;2.93;;;13.90;81.10;;;;;;4990687;28;20212;-66
2023/07/12 10:58:59;;;;;;;8.37;3.20;;;13.80;81.50;;;;;;4948186;29;20183;-67
2023/07/12 11:02:05;;;;;;;10.23;3.40;;;13.80;81.70;;;;;;5008912;28;20197;-66
2023/07/12 11:04:34;;;;;;;9.23;3.73;;;13.70;81.90;;;;;;4977022;28;20285;-68
2023/07/12 11:07:12;;;;;;;8.67;3.90;;;13.70;82.20;;;;;;5008233;28;20272;-68
2023/07/12 11:09:49;;;;;;;7.97;3.60;;;13.70;82.50;;;;;;5007441;28;20221;-66
2023/07/12 11:12:31;;;;;;;6.73;3.33;;;13.70;82.40;;;;;;5010759;28;20284;-68
2023/07/12 11:15:04;;;;;;;7.13;3.60;;;13.70;82.50;;;;;;5000990;28;20218;-68
2023/07/12 11:17:50;;;;;;;7.67;4.00;;;13.70;82.90;;;;;;5010290;28;20572;-64
2023/07/12 11:20:30;;;;;;;7.97;3.60;;;13.70;82.60;;;;;;5004769;28;20188;-66
2023/07/12 11:22:59;;;;;;;7.17;3.80;;;13.60;82.90;;;;;;5008661;28;20193;-66
2023/07/12 11:25:41;;;;;;;7.57;4.10;;;13.50;82.80;;;;;;5006413;28;20186;-69
2023/07/12 11:28:21;;;;;;;7.47;3.60;;;13.50;83.10;;;;;;5005221;28;20196;-66
2023/07/12 11:31:12;;;;;;;10.70;3.30;;;13.50;83.10;;;;;;5004237;28;20304;-65
2023/07/12 11:33:42;;;;;;;8.23;3.13;;;13.40;83.30;;;;;;5003082;28;20625;-69
2023/07/12 11:36:18;;;;;;;9.17;3.87;;;13.30;83.40;;;;;;5002322;28;20304;-65
2023/07/12 11:38:49;;;;;;;12.77;3.70;;;13.40;83.80;;;;;;5005243;28;20276;-65
2023/07/12 11:41:23;;;;;;;6.13;3.47;;;13.30;83.80;;;;;;5003935;28;20232;-67
2023/07/12 11:44:05;;;;;;;7.63;3.40;;;13.30;84.00;;;;;;5005037;28;20193;-65
2023/07/12 11:46:36;;;;;;;7.30;3.23;;;13.30;84.30;;;;;;5007291;28;20271;-66
2023/07/12 11:49:16;;;;;;;8.53;3.40;;;13.40;84.70;;;;;;5001846;28;20202;-67
2023/07/12 11:51:48;;;;;;;7.03;3.10;;;13.50;84.80;;;;;;5002641;28;20557;-64
2023/07/12 11:54:27;;;;;;;4.80;2.80;;;13.50;84.90;;;;;;5002911;28;20587;-66
2023/07/12 11:57:02;;;;;;;8.20;3.13;;;13.70;84.50;;;;;;4999531;28;20772;-65
2023/07/12 11:59:37;;;;;;;10.77;2.90;;;13.70;84.40;;;;;;5007755;28;20184;-64
2023/07/12 12:02:13;;;;;;;8.70;3.03;;;13.80;84.00;;;;;;5007850;28;20339;-64
2023/07/12 12:04:41;;;;;;;8.00;3.10;;;13.80;83.90;;;;;;5002450;28;20196;-64
2023/07/12 12:07:36;;;;;;;6.77;3.20;;;13.80;83.90;;;;;;5007578;28;20879;-64
2023/07/12 12:10:05;;;;;;;6.57;3.00;;;13.80;83.90;;;;;;4997799;28;20254;-64
2023/07/12 12:12:34;;;;;;;6.17;3.43;;;13.80;84.00;;;;;;5004509;28;20192;-67
2023/07/12 12:15:01;;;;;;;8.73;2.97;;;13.80;83.90;;;;;;5002728;28;20213;-65
2023/07/12 12:17:36;;;;;;;11.33;3.37;;;13.80;84.00;;;;;;4999616;28;20684;-67
2023/07/12 12:20:16;;;;;;;9.50;3.60;;;13.80;84.10;;;;;;5007175;28;20181;-66
2023/07/12 12:22:49;;;;;;;11.87;3.47;;;13.70;84.20;;;;;;5004925;28;20234;-64
2023/07/12 12:25:23;;;;;;;5.80;3.00;;;13.70;84.50;;;;;;5004663;28;20533;-66
2023/07/12 12:27:51;;;;;;;10.77;3.20;;;13.70;84.60;;;;;;5004062;28;20325;-68
2023/07/12 12:30:33;;;;;;;6.30;3.50;;;13.60;84.60;;;;;;4994869;28;20239;-67
2023/07/12 12:33:21;;;;;;;7.60;4.00;;;13.60;84.80;;;;;;5002370;28;20547;-64
2023/07/12 12:35:55;;;;;;;12.67;3.60;;;13.50;84.80;;;;;;5000864;28;20264;-66
2023/07/12 12:38:29;;;;;;;9.27;3.47;;;13.40;84.70;;;;;;5004608;28;20185;-67
2023/07/12 12:41:31;;;;;;;8.83;3.57;;;13.30;84.90;;;;;;5002223;28;20661;-65
2023/07/12 12:44:34;;;;;;;7.33;3.37;;;13.20;84.90;;;;;;4990085;28;20202;-65
2023/07/12 12:47:12;;;;;;;7.53;3.73;;;13.20;85.40;;;;;;4968489;28;20185;-67
2023/07/12 12:49:40;;;;;;;8.87;3.30;;;13.00;85.60;;;;;;5002829;28;20213;-67
2023/07/12 12:52:27;;;;;;;8.83;3.70;;;13.00;85.90;;;;;;4990500;28;20575;-67
2023/07/12 12:54:59;;;;;;;8.63;3.50;;;12.90;86.00;;;;;;5007302;28;20213;-65
2023/07/12 12:57:29;;;;;;;8.83;3.87;;;12.90;86.50;;;;;;5006734;28;20221;-67
2023/07/12 12:59:57;;;;;;;7.57;3.67;;;12.90;86.70;;;;;;5002795;28;20512;-66
2023/07/12 13:02:25;;;;;;;8.63;4.10;;;12.80;87.00;;;;;;4999577;28;20611;-66
2023/07/12 13:04:54;;;;;;;7.43;3.90;;;12.80;87.00;;;;;;4998496;28;20189;-67
2023/07/12 13:07:33;;;;;;;8.53;3.87;;;12.80;87.00;;;;;;4998864;28;20259;-64
2023/07/12 13:10:02;;;;;;;9.37;3.67;;;12.70;86.90;;;;;;5012166;28;20272;-66
2023/07/12 13:12:31;;;;;;;7.40;3.70;;;12.70;87.10;;;;;;5006867;28;20182;-65
2023/07/12 13:14:58;;;;;;;8.90;4.30;;;12.70;87.50;;;;;;5009040;28;20706;-69